WetterOnline ( https://www.wetteronline.ch )

Wetter aktuell Nizza

Aktuelles Wetter: Nizza (27m)

6-stündlich | Neueste Meldungen
Ortszeit Temperatur Wetter
Do, 13.05. 8:00 14.5° C leicht bewölkt
Do, 13.05. 2:00 14.1° C leicht bewölkt
Mi, 12.05. 20:00 19.8° C leicht bewölkt
Mi, 12.05. 14:00 20.8° C leicht bewölkt
Mi, 12.05. 8:00 14.3° C fast wolkenlos
Mi, 12.05. 2:00 13.3° C wolkenlos
Di, 11.05. 20:00 18.6° C leicht bewölkt
Di, 11.05. 14:00 18.1° C leicht bewölkt
Ortszeit Temperatur Wetter
Do, 13.05. 8:00 14.5° C leicht bewölkt
Do, 13.05. 7:30 14° C leicht bewölkt
Do, 13.05. 7:00 13.6° C wolkig
Do, 13.05. 6:30 12° C leicht bewölkt
Do, 13.05. 6:00 14.4° C leicht bewölkt
Do, 13.05. 5:30 12° C leicht bewölkt
Do, 13.05. 5:00 13.0° C leicht bewölkt
Do, 13.05. 4:30 13° C -
Ortszeit Relative Feuchte Sichtweite
Do, 13.05. 8:00 66% 40 km
Do, 13.05. 2:00 80% 40 km
Mi, 12.05. 20:00 47% 40 km
Mi, 12.05. 14:00 51% 40 km
Mi, 12.05. 8:00 61% 30 km
Mi, 12.05. 2:00 78% 30 km
Di, 11.05. 20:00 56% 30 km
Di, 11.05. 14:00 82% 30 km
Ortszeit Relative Feuchte Sichtweite
Do, 13.05. 8:00 66% 40 km
Do, 13.05. 7:30 72% >10 km
Do, 13.05. 7:00 71% 40 km
Do, 13.05. 6:30 82% >10 km
Do, 13.05. 6:00 85% 40 km
Do, 13.05. 5:30 82% >10 km
Do, 13.05. 5:00 79% 40 km
Do, 13.05. 4:30 88% >10 km
Ortszeit Niederschlagsmenge Niederschlagsart
Do, 13.05. 8:00 0.0 l/m2 in 12 Std. -
Do, 13.05. 2:00 0.0 l/m2 in 6 Std. -
Mi, 12.05. 20:00 0.0 l/m2 in 12 Std. -
Mi, 12.05. 14:00 0.0 l/m2 in 6 Std. -
Mi, 12.05. 8:00 0.0 l/m2 in 12 Std. -
Mi, 12.05. 2:00 0.0 l/m2 in 6 Std. -
Di, 11.05. 20:00 0.8 l/m2 in 12 Std. Regenschauer
Di, 11.05. 14:00 0.8 l/m2 in 6 Std. Regenschauer
Ortszeit Niederschlagsmenge Niederschlagsart
Do, 13.05. 8:00 keine Meldung -
Do, 13.05. 7:30 keine Meldung -
Do, 13.05. 7:00 0.0 l/m2 in 1 Std. -
Do, 13.05. 6:30 keine Meldung -
Do, 13.05. 6:00 0.0 l/m2 in 1 Std. -
Do, 13.05. 5:30 keine Meldung -
Do, 13.05. 5:00 keine Meldung -
Do, 13.05. 4:30 keine Meldung -
Ortszeit Stärke Spitze Richtung
km/h Bft. km/h Grad Sektor
Do, 13.05. 8:00 11 2 19 320° NW
Do, 13.05. 2:00 13 3 15 310° NW
Mi, 12.05. 20:00 28 4 52 230° SW
Mi, 12.05. 14:00 28 4 39 200° S
Mi, 12.05. 8:00 17 3 30 310° NW
Mi, 12.05. 2:00 6 1 11 320° NW
Di, 11.05. 20:00 15 3 28 270° W
Di, 11.05. 14:00 17 3 20 190° S
Ortszeit Stärke Spitze Richtung
km/h Bft. km/h Grad Sektor
Do, 13.05. 8:00 11 2 19 320° NW
Do, 13.05. 7:30 9 2 - 330° NW
Do, 13.05. 7:00 11 2 17 330° NW
Do, 13.05. 6:30 9 2 - 330° NW
Do, 13.05. 6:00 13 3 20 60° NO
Do, 13.05. 5:30 9 2 - 20° N
Do, 13.05. 5:00 11 2 15 40° NO
Do, 13.05. 4:30 6 1 - uml. uml.
Ortszeit Untergrenze Bedeckung Gattung
total tief tief mittel hoch
Do, 13.05. 8:00 480 m 2/8 2/8 Sc - -
Do, 13.05. 2:00 3000 m 4/8 2/8 - Ac Ci
Mi, 12.05. 20:00 1500 m 4/8 2/8 Sc Ac Ci
Mi, 12.05. 14:00 1200 m 4/8 1/8 Cu - Ci
Mi, 12.05. 8:00 7800 m 1/8 0/8 - - Ci
Mi, 12.05. 2:00 - 0/8 0/8 - - -
Di, 11.05. 20:00 1200 m 4/8 1/8 Cu - Ci
Di, 11.05. 14:00 270 m 4/8 3/8 Cu Ac -
Ortszeit Bedeckungsgrad in Achtel und Wolkenuntergrenze
Do, 13.05. 8:00 2(480m)
Do, 13.05. 7:30 3-4(450m)
Do, 13.05. 7:00 5(450m)
Do, 13.05. 6:30 3-4(450m)
Do, 13.05. 6:00 3(420m)
Do, 13.05. 5:30 1-2(420m)
Do, 13.05. 5:00 2(420m)
Do, 13.05. 4:30 keine Wolken(unter 1500 m)
Ortszeit Luftdruck NN (hPa) Tendenz (hPa in 3 Std.)
Do, 13.05. 8:00 1007 0,0
Do, 13.05. 2:00 1008 + 0,1
Mi, 12.05. 20:00 1005 - 0,7
Mi, 12.05. 14:00 1007 - 1,6
Mi, 12.05. 8:00 1009 - 0,6
Mi, 12.05. 2:00 1010 + 1,0
Di, 11.05. 20:00 1008 - 0,9
Di, 11.05. 14:00 1010 + 0,1
Ortszeit Luftdruck NN (hPa) Tendenz (hPa in 3 Std.)
Do, 13.05. 8:00 1007 0,0
Do, 13.05. 7:30 1006 keine Meldung
Do, 13.05. 7:00 1007 + 0,3
Do, 13.05. 6:30 1006 keine Meldung
Do, 13.05. 6:00 1007 - 0,1
Do, 13.05. 5:30 1006 keine Meldung
Do, 13.05. 5:00 1007 - 0,7
Do, 13.05. 4:30 1006 keine Meldung
Ortszeit Schneehöhe (cm)
Do, 13.05. 8:00 -
Do, 13.05. 2:00 -
Mi, 12.05. 20:00 -
Mi, 12.05. 14:00 -
Mi, 12.05. 8:00 -
Mi, 12.05. 2:00 -
Di, 11.05. 20:00 -
Di, 11.05. 14:00 -
Ortszeit Schneehöhe (cm)
Do, 13.05. 8:00 -
Do, 13.05. 7:30 -
Do, 13.05. 7:00 -
Do, 13.05. 6:30 -
Do, 13.05. 6:00 -
Do, 13.05. 5:30 -
Do, 13.05. 5:00 -
Do, 13.05. 4:30 -
Link zu dieser Seite / Seite empfehlen

Das Wetter in ...